Time;durP1;ratioP1;P1;durP2;ratioP2;P2;SDS_P1;SDS_P2;PMS_P1;PMS_P2;Temp;Humidity;BMP_temperature;BMP_pressure;BME280_temperature;BME280_humidity;BME280_pressure;Samples;Min_cycle;Max_cycle;Signal;HPM_P1;HPM_P2
2021/05/16 00:00:15;;;;;;;;;;;21.20;40.80;;;;;;457448;260;2214;-75
2021/05/16 00:02:16;;;;;;;;;;;21.20;40.80;;;;;;457343;260;1203;-75
2021/05/16 00:04:18;;;;;;;;;;;21.20;40.70;;;;;;457406;260;1127;-75
2021/05/16 00:06:19;;;;;;;;;;;21.30;40.70;;;;;;457364;255;1140;-75
2021/05/16 00:08:20;;;;;;;;;;;21.20;40.60;;;;;;457431;260;1004;-75
2021/05/16 00:10:21;;;;;;;;;;;21.30;40.60;;;;;;457339;260;1146;-75
2021/05/16 00:12:23;;;;;;;;;;;21.30;40.50;;;;;;457260;260;1218;-75
2021/05/16 00:14:24;;;;;;;;;;;21.40;40.60;;;;;;457368;260;1224;-76
2021/05/16 00:16:25;;;;;;;;;;;21.40;40.60;;;;;;457322;260;1186;-75
2021/05/16 00:18:27;;;;;;;;;;;21.30;40.60;;;;;;457375;260;1048;-75
2021/05/16 00:20:28;;;;;;;;;;;21.30;40.50;;;;;;457381;260;2210;-75
2021/05/16 00:22:29;;;;;;;;;;;21.40;40.40;;;;;;457434;260;1121;-75
2021/05/16 00:24:30;;;;;;;;;;;21.40;40.40;;;;;;457372;260;992;-75
2021/05/16 00:26:32;;;;;;;;;;;21.30;40.50;;;;;;457291;260;1247;-75
2021/05/16 00:28:33;;;;;;;;;;;21.30;40.40;;;;;;457416;260;1015;-75
2021/05/16 00:30:34;;;;;;;;;;;21.30;40.40;;;;;;457423;260;1165;-75
2021/05/16 00:32:36;;;;;;;;;;;21.30;40.50;;;;;;457276;260;1165;-75
2021/05/16 00:34:37;;;;;;;;;;;21.30;40.60;;;;;;457429;260;999;-75
2021/05/16 00:36:38;;;;;;;;;;;21.30;40.50;;;;;;457239;260;1234;-75
2021/05/16 00:38:39;;;;;;;;;;;21.30;40.50;;;;;;457359;257;1061;-75
2021/05/16 00:40:41;;;;;;;;;;;21.30;40.40;;;;;;457377;260;2209;-75
2021/05/16 00:42:42;;;;;;;;;;;21.30;40.40;;;;;;457418;260;1340;-75
2021/05/16 00:44:43;;;;;;;;;;;21.30;40.40;;;;;;457270;260;1181;-75
2021/05/16 00:46:45;;;;;;;;;;;21.50;40.00;;;;;;457357;260;1162;-75
2021/05/16 00:48:46;;;;;;;;;;;21.40;40.10;;;;;;457431;260;1068;-75
2021/05/16 00:50:48;;;;;;;;;;;21.30;40.20;;;;;;457414;260;1238;-75
2021/05/16 00:52:48;;;;;;;;;;;21.30;40.30;;;;;;457339;260;1403;-75
2021/05/16 00:54:50;;;;;;;;;;;21.30;40.20;;;;;;457429;260;1045;-75
2021/05/16 00:56:51;;;;;;;;;;;21.30;40.10;;;;;;457573;260;1074;-75
2021/05/16 00:58:52;;;;;;;;;;;21.30;40.00;;;;;;457433;260;970;-75
2021/05/16 01:00:54;;;;;;;;;;;21.30;40.10;;;;;;457400;260;2155;-75
2021/05/16 01:02:55;;;;;;;;;;;21.30;40.10;;;;;;457356;260;1082;-75
2021/05/16 01:04:56;;;;;;;;;;;21.40;40.00;;;;;;457371;260;1097;-75
2021/05/16 01:06:57;;;;;;;;;;;21.30;40.00;;;;;;457344;260;1171;-75
2021/05/16 01:09:00;;;;;;;;;;;21.30;40.00;;;;;;457285;260;1238;-74
2021/05/16 01:11:00;;;;;;;;;;;21.30;39.90;;;;;;457244;260;1454;-75
2021/05/16 01:13:03;;;;;;;;;;;21.30;40.00;;;;;;457373;260;1079;-75
2021/05/16 01:15:04;;;;;;;;;;;21.20;40.00;;;;;;457307;255;1345;-75
2021/05/16 01:17:04;;;;;;;;;;;21.30;40.10;;;;;;457388;260;1479;-75
2021/05/16 01:19:05;;;;;;;;;;;21.20;40.00;;;;;;457431;260;1031;-75
2021/05/16 01:21:08;;;;;;;;;;;21.30;40.00;;;;;;457270;260;2152;-75
2021/05/16 01:23:09;;;;;;;;;;;21.20;40.00;;;;;;457415;260;1334;-75
2021/05/16 01:25:10;;;;;;;;;;;21.20;39.90;;;;;;457445;260;1071;-75
2021/05/16 01:27:11;;;;;;;;;;;21.30;39.90;;;;;;457424;260;1090;-75
2021/05/16 01:29:12;;;;;;;;;;;21.20;39.80;;;;;;457341;256;1254;-75
2021/05/16 01:31:14;;;;;;;;;;;21.20;39.80;;;;;;457377;260;1179;-75
2021/05/16 01:33:15;;;;;;;;;;;21.20;39.80;;;;;;457353;260;1110;-75
2021/05/16 01:35:16;;;;;;;;;;;21.30;39.70;;;;;;457301;260;1107;-75
2021/05/16 01:37:18;;;;;;;;;;;21.20;39.80;;;;;;457258;260;1072;-75
2021/05/16 01:39:19;;;;;;;;;;;21.30;39.70;;;;;;457300;260;1119;-75
2021/05/16 01:41:20;;;;;;;;;;;21.30;39.50;;;;;;457334;260;2163;-75
2021/05/16 01:43:21;;;;;;;;;;;21.40;39.50;;;;;;457439;260;1089;-75
2021/05/16 01:45:24;;;;;;;;;;;21.20;39.50;;;;;;457307;260;1012;-75
2021/05/16 01:47:24;;;;;;;;;;;21.20;39.60;;;;;;457354;260;1267;-75
2021/05/16 01:49:26;;;;;;;;;;;21.30;39.50;;;;;;457432;260;1154;-75
2021/05/16 01:51:27;;;;;;;;;;;21.30;39.60;;;;;;457356;260;1130;-75
2021/05/16 01:53:28;;;;;;;;;;;21.30;39.50;;;;;;457433;260;1025;-75
2021/05/16 01:55:30;;;;;;;;;;;21.30;39.40;;;;;;457292;260;1085;-75
2021/05/16 01:57:31;;;;;;;;;;;21.20;39.40;;;;;;457328;260;1054;-75
2021/05/16 01:59:32;;;;;;;;;;;21.30;39.40;;;;;;457322;260;1118;-75
2021/05/16 02:01:33;;;;;;;;;;;21.30;39.40;;;;;;457318;260;2210;-75
2021/05/16 02:03:35;;;;;;;;;;;21.30;39.30;;;;;;457306;260;1094;-75
2021/05/16 02:05:36;;;;;;;;;;;21.20;39.40;;;;;;457387;260;1254;-75
2021/05/16 02:07:37;;;;;;;;;;;21.30;39.30;;;;;;457376;260;1137;-75
2021/05/16 02:09:38;;;;;;;;;;;21.30;39.20;;;;;;457370;260;973;-75
2021/05/16 02:11:40;;;;;;;;;;;21.30;39.10;;;;;;457353;260;1029;-75
2021/05/16 02:13:41;;;;;;;;;;;21.30;39.20;;;;;;457385;260;1147;-75
2021/05/16 02:15:42;;;;;;;;;;;21.20;39.10;;;;;;457396;260;1030;-75
2021/05/16 02:17:44;;;;;;;;;;;21.20;39.10;;;;;;457432;260;1208;-75
2021/05/16 02:19:45;;;;;;;;;;;21.30;39.10;;;;;;457413;260;1032;-75
2021/05/16 02:21:46;;;;;;;;;;;21.30;39.10;;;;;;457243;260;2210;-75
2021/05/16 02:23:48;;;;;;;;;;;21.30;39.00;;;;;;457322;260;1368;-75
2021/05/16 02:25:49;;;;;;;;;;;21.30;39.00;;;;;;457340;260;1157;-75
2021/05/16 02:27:50;;;;;;;;;;;21.30;38.90;;;;;;457386;260;1206;-75
2021/05/16 02:29:51;;;;;;;;;;;21.30;38.80;;;;;;457398;260;1040;-75
2021/05/16 02:31:53;;;;;;;;;;;21.30;38.90;;;;;;457276;260;1241;-75
2021/05/16 02:33:54;;;;;;;;;;;21.30;38.90;;;;;;457365;260;1082;-75
2021/05/16 02:35:55;;;;;;;;;;;21.30;39.10;;;;;;457400;260;1156;-75
2021/05/16 02:37:57;;;;;;;;;;;21.20;39.00;;;;;;457497;260;1127;-75
2021/05/16 02:39:58;;;;;;;;;;;21.20;39.10;;;;;;457356;260;1191;-75
2021/05/16 02:41:59;;;;;;;;;;;21.20;39.10;;;;;;457402;260;2190;-75
2021/05/16 02:44:00;;;;;;;;;;;21.20;39.00;;;;;;457317;260;1014;-75
2021/05/16 02:46:02;;;;;;;;;;;21.20;39.00;;;;;;457405;260;990;-75
2021/05/16 02:48:03;;;;;;;;;;;21.40;38.70;;;;;;457346;260;1278;-75
2021/05/16 02:50:04;;;;;;;;;;;21.20;38.70;;;;;;457387;260;993;-75
2021/05/16 02:52:05;;;;;;;;;;;21.30;38.80;;;;;;457330;260;1250;-75
2021/05/16 02:54:07;;;;;;;;;;;21.30;38.80;;;;;;457409;260;1268;-75
2021/05/16 02:56:08;;;;;;;;;;;21.20;38.80;;;;;;457364;260;1133;-75
2021/05/16 02:58:09;;;;;;;;;;;21.20;38.80;;;;;;457332;260;1174;-75
2021/05/16 03:00:11;;;;;;;;;;;21.20;38.80;;;;;;457398;260;1032;-75
2021/05/16 03:02:12;;;;;;;;;;;21.20;38.80;;;;;;457368;260;2206;-75
2021/05/16 03:04:13;;;;;;;;;;;21.20;38.80;;;;;;457329;260;1105;-75
2021/05/16 03:06:14;;;;;;;;;;;21.20;38.80;;;;;;457368;260;1100;-75
2021/05/16 03:08:19;;;;;;;;;;;21.20;38.70;;;;;;457488;260;1152;-75
2021/05/16 03:10:21;;;;;;;;;;;21.20;38.70;;;;;;457373;260;1151;-75
2021/05/16 03:12:22;;;;;;;;;;;21.30;38.50;;;;;;457385;260;1125;-75
2021/05/16 03:14:23;;;;;;;;;;;21.30;38.60;;;;;;457361;260;1041;-75
2021/05/16 03:16:24;;;;;;;;;;;21.30;38.60;;;;;;457279;260;1076;-75
2021/05/16 03:18:26;;;;;;;;;;;21.30;38.50;;;;;;457363;260;1217;-75
2021/05/16 03:20:27;;;;;;;;;;;21.30;38.50;;;;;;457295;260;2198;-75
2021/05/16 03:22:28;;;;;;;;;;;21.20;38.50;;;;;;457355;260;1115;-75
2021/05/16 03:24:30;;;;;;;;;;;21.20;38.60;;;;;;457300;260;1133;-75
2021/05/16 03:26:31;;;;;;;;;;;21.20;38.60;;;;;;457397;260;1095;-75
2021/05/16 03:28:32;;;;;;;;;;;21.20;38.60;;;;;;457369;260;1256;-75
2021/05/16 03:30:34;;;;;;;;;;;21.20;38.50;;;;;;457437;260;1095;-75
2021/05/16 03:32:36;;;;;;;;;;;21.20;38.40;;;;;;457379;260;1286;-75
2021/05/16 03:34:37;;;;;;;;;;;21.20;38.50;;;;;;457402;260;1203;-75
2021/05/16 03:36:38;;;;;;;;;;;21.20;38.40;;;;;;457413;260;1105;-75
2021/05/16 03:38:40;;;;;;;;;;;21.20;38.30;;;;;;457412;260;1062;-75
2021/05/16 03:40:41;;;;;;;;;;;21.20;38.30;;;;;;457296;260;2167;-75
2021/05/16 03:42:42;;;;;;;;;;;21.20;38.30;;;;;;457334;260;1013;-75
2021/05/16 03:44:43;;;;;;;;;;;21.20;38.40;;;;;;457325;260;986;-75
2021/05/16 03:46:45;;;;;;;;;;;21.20;38.40;;;;;;457326;260;1120;-75
2021/05/16 03:48:46;;;;;;;;;;;21.20;38.30;;;;;;457325;260;1207;-75
2021/05/16 03:50:47;;;;;;;;;;;21.20;38.40;;;;;;457358;255;1239;-75
2021/05/16 03:52:49;;;;;;;;;;;21.30;38.20;;;;;;457410;260;1150;-75
2021/05/16 03:54:50;;;;;;;;;;;21.20;38.40;;;;;;457411;260;1009;-75
2021/05/16 03:56:51;;;;;;;;;;;21.20;38.30;;;;;;457354;260;1218;-75
2021/05/16 03:58:52;;;;;;;;;;;21.10;38.40;;;;;;457415;260;982;-75
2021/05/16 04:00:54;;;;;;;;;;;21.10;38.40;;;;;;457342;260;2206;-75
2021/05/16 04:02:55;;;;;;;;;;;21.10;38.40;;;;;;457432;260;1205;-75
2021/05/16 04:04:56;;;;;;;;;;;21.20;38.20;;;;;;457391;260;1211;-75
2021/05/16 04:06:58;;;;;;;;;;;21.20;38.30;;;;;;457354;260;1653;-75
2021/05/16 04:08:59;;;;;;;;;;;21.20;38.40;;;;;;457254;260;996;-75
2021/05/16 04:11:00;;;;;;;;;;;21.20;38.40;;;;;;457321;260;1113;-76
2021/05/16 04:13:01;;;;;;;;;;;21.10;38.40;;;;;;457396;260;1052;-75
2021/05/16 04:15:03;;;;;;;;;;;21.10;38.50;;;;;;457252;260;1151;-75
2021/05/16 04:17:04;;;;;;;;;;;21.20;38.50;;;;;;457270;257;1203;-75
2021/05/16 04:19:05;;;;;;;;;;;21.10;38.50;;;;;;457462;260;1418;-75
2021/05/16 04:21:07;;;;;;;;;;;21.10;38.60;;;;;;457222;260;2214;-75
2021/05/16 04:23:08;;;;;;;;;;;21.20;38.40;;;;;;457420;260;1011;-75
2021/05/16 04:25:09;;;;;;;;;;;21.20;38.50;;;;;;457377;260;1073;-75
2021/05/16 04:27:10;;;;;;;;;;;21.20;38.60;;;;;;457347;260;1081;-75
2021/05/16 04:29:12;;;;;;;;;;;21.20;38.60;;;;;;457407;260;983;-75
2021/05/16 04:31:13;;;;;;;;;;;21.30;38.50;;;;;;457342;260;1032;-75
2021/05/16 04:33:15;;;;;;;;;;;21.20;38.50;;;;;;457359;260;1301;-75
2021/05/16 04:35:16;;;;;;;;;;;21.20;38.60;;;;;;457332;260;1402;-75
2021/05/16 04:37:17;;;;;;;;;;;21.20;38.50;;;;;;457341;260;1086;-75
2021/05/16 04:39:18;;;;;;;;;;;21.20;38.60;;;;;;457277;260;1092;-75
2021/05/16 04:41:19;;;;;;;;;;;21.20;38.60;;;;;;457326;260;2199;-75
2021/05/16 04:43:21;;;;;;;;;;;21.20;38.70;;;;;;457388;260;1039;-75
2021/05/16 04:45:22;;;;;;;;;;;21.20;38.60;;;;;;457370;260;1142;-75
2021/05/16 04:47:23;;;;;;;;;;;21.20;38.60;;;;;;457462;260;1081;-75
2021/05/16 04:49:24;;;;;;;;;;;21.30;38.40;;;;;;457414;260;1349;-75
2021/05/16 04:51:26;;;;;;;;;;;21.30;38.50;;;;;;457331;260;1056;-75
2021/05/16 04:53:29;;;;;;;;;;;21.20;38.70;;;;;;457389;260;1024;-75
2021/05/16 04:55:29;;;;;;;;;;;21.20;38.70;;;;;;457244;260;1390;-75
2021/05/16 04:57:30;;;;;;;;;;;21.30;38.80;;;;;;457312;260;1152;-75
2021/05/16 04:59:31;;;;;;;;;;;21.30;38.80;;;;;;457312;260;1018;-75
2021/05/16 05:01:33;;;;;;;;;;;21.30;38.70;;;;;;457281;260;2190;-75
2021/05/16 05:03:34;;;;;;;;;;;21.30;38.60;;;;;;457312;260;987;-75
2021/05/16 05:05:35;;;;;;;;;;;21.30;38.70;;;;;;457302;260;1157;-75
2021/05/16 05:07:37;;;;;;;;;;;21.20;38.80;;;;;;457402;260;1166;-75
2021/05/16 05:09:38;;;;;;;;;;;21.30;38.90;;;;;;457257;257;1100;-75
2021/05/16 05:11:39;;;;;;;;;;;21.20;38.80;;;;;;457383;260;1045;-75
2021/05/16 05:13:40;;;;;;;;;;;21.20;39.00;;;;;;457404;260;1050;-75
2021/05/16 05:15:42;;;;;;;;;;;21.20;38.90;;;;;;457323;260;1080;-75
2021/05/16 05:17:43;;;;;;;;;;;21.20;38.90;;;;;;457352;260;1045;-75
2021/05/16 05:19:44;;;;;;;;;;;21.20;38.90;;;;;;457337;260;1183;-75
2021/05/16 05:21:46;;;;;;;;;;;21.30;38.70;;;;;;457300;260;2190;-75
2021/05/16 05:23:47;;;;;;;;;;;21.20;38.80;;;;;;457407;260;999;-75
2021/05/16 05:25:49;;;;;;;;;;;21.20;38.90;;;;;;457286;260;1127;-75
2021/05/16 05:27:49;;;;;;;;;;;21.20;38.80;;;;;;457277;260;1401;-75
2021/05/16 05:29:51;;;;;;;;;;;21.20;39.00;;;;;;457338;260;1010;-75
2021/05/16 05:31:52;;;;;;;;;;;21.20;39.10;;;;;;457295;260;1280;-75
2021/05/16 05:33:53;;;;;;;;;;;21.20;39.00;;;;;;457293;260;1008;-75
2021/05/16 05:35:55;;;;;;;;;;;21.20;39.00;;;;;;457247;260;1263;-75
2021/05/16 05:37:56;;;;;;;;;;;21.20;39.00;;;;;;457379;260;1087;-75
2021/05/16 05:39:57;;;;;;;;;;;21.20;38.90;;;;;;457388;260;1252;-75
2021/05/16 05:41:58;;;;;;;;;;;21.20;38.90;;;;;;457290;256;2202;-75
2021/05/16 05:44:00;;;;;;;;;;;21.20;39.00;;;;;;457375;260;980;-75
2021/05/16 05:46:01;;;;;;;;;;;21.20;39.00;;;;;;457246;260;1341;-75
2021/05/16 05:48:02;;;;;;;;;;;21.10;39.10;;;;;;457373;260;1128;-75
2021/05/16 05:50:04;;;;;;;;;;;21.20;39.10;;;;;;457442;260;1127;-75
2021/05/16 05:52:05;;;;;;;;;;;21.30;39.00;;;;;;457319;260;1169;-75
2021/05/16 05:54:06;;;;;;;;;;;21.30;38.80;;;;;;457344;260;1134;-75
2021/05/16 05:56:08;;;;;;;;;;;21.30;38.80;;;;;;457171;256;1345;-75
2021/05/16 05:58:09;;;;;;;;;;;21.20;39.10;;;;;;457397;260;1091;-75
2021/05/16 06:00:10;;;;;;;;;;;21.20;39.10;;;;;;457363;260;995;-75
2021/05/16 06:02:11;;;;;;;;;;;21.20;39.10;;;;;;457317;260;2191;-75
2021/05/16 06:04:13;;;;;;;;;;;21.30;39.10;;;;;;457366;260;1119;-75
2021/05/16 06:06:14;;;;;;;;;;;21.20;39.10;;;;;;457387;260;1226;-75
2021/05/16 06:08:16;;;;;;;;;;;21.20;39.20;;;;;;457466;260;1147;-75
2021/05/16 06:10:17;;;;;;;;;;;21.20;39.20;;;;;;457349;260;1131;-75
2021/05/16 06:12:18;;;;;;;;;;;21.20;39.20;;;;;;457337;260;1173;-75
2021/05/16 06:14:20;;;;;;;;;;;21.20;39.20;;;;;;457397;260;1117;-75
2021/05/16 06:16:21;;;;;;;;;;;21.20;39.20;;;;;;457390;260;1242;-75
2021/05/16 06:18:23;;;;;;;;;;;21.30;39.20;;;;;;457534;260;1089;-75
2021/05/16 06:20:24;;;;;;;;;;;21.30;39.20;;;;;;457280;260;1404;-75
2021/05/16 06:22:25;;;;;;;;;;;21.20;39.20;;;;;;457323;260;2206;-75
2021/05/16 06:24:26;;;;;;;;;;;21.30;39.20;;;;;;457321;260;1007;-75
2021/05/16 06:26:27;;;;;;;;;;;21.30;39.30;;;;;;457293;260;1347;-75
2021/05/16 06:28:29;;;;;;;;;;;21.30;39.30;;;;;;457328;260;1039;-75
2021/05/16 06:30:30;;;;;;;;;;;21.20;39.40;;;;;;457340;260;1187;-75
2021/05/16 06:32:31;;;;;;;;;;;21.20;39.30;;;;;;457418;260;1149;-75
2021/05/16 06:34:33;;;;;;;;;;;21.30;39.40;;;;;;457420;260;1048;-75
2021/05/16 06:36:34;;;;;;;;;;;21.20;39.50;;;;;;457351;255;1179;-75
2021/05/16 06:38:35;;;;;;;;;;;21.20;39.50;;;;;;457287;260;1115;-75
2021/05/16 06:40:36;;;;;;;;;;;21.20;39.40;;;;;;457363;260;982;-75
2021/05/16 06:42:38;;;;;;;;;;;21.20;39.50;;;;;;457390;260;2206;-75
2021/05/16 06:44:39;;;;;;;;;;;21.20;39.70;;;;;;457363;260;1045;-75
2021/05/16 06:46:40;;;;;;;;;;;21.20;39.80;;;;;;457225;260;1230;-75
2021/05/16 06:48:42;;;;;;;;;;;21.20;39.80;;;;;;457286;260;980;-75
2021/05/16 06:50:43;;;;;;;;;;;21.10;39.70;;;;;;457304;260;1157;-75
2021/05/16 06:52:44;;;;;;;;;;;21.20;39.60;;;;;;457403;260;1164;-75
2021/05/16 06:54:45;;;;;;;;;;;21.20;39.60;;;;;;457341;260;1025;-75
2021/05/16 06:56:47;;;;;;;;;;;21.20;39.60;;;;;;457264;260;1128;-75
2021/05/16 06:58:48;;;;;;;;;;;21.20;39.60;;;;;;457439;260;981;-75
2021/05/16 07:00:49;;;;;;;;;;;21.20;39.70;;;;;;457367;260;1130;-75
2021/05/16 07:02:51;;;;;;;;;;;21.20;39.80;;;;;;457301;260;2198;-75
2021/05/16 07:04:52;;;;;;;;;;;21.20;39.70;;;;;;457402;260;1074;-75
2021/05/16 07:06:53;;;;;;;;;;;21.20;39.80;;;;;;457430;255;1225;-75
2021/05/16 07:08:54;;;;;;;;;;;21.20;39.80;;;;;;457353;260;1089;-75
2021/05/16 07:10:56;;;;;;;;;;;21.20;39.90;;;;;;457381;260;1074;-75
2021/05/16 07:12:58;;;;;;;;;;;21.20;39.90;;;;;;457284;260;1230;-75
2021/05/16 07:14:58;;;;;;;;;;;21.30;39.80;;;;;;457208;256;1511;-75
2021/05/16 07:17:00;;;;;;;;;;;21.20;39.90;;;;;;457230;260;1214;-75
2021/05/16 07:19:02;;;;;;;;;;;21.20;39.80;;;;;;457286;260;989;-75
2021/05/16 07:21:02;;;;;;;;;;;21.30;39.80;;;;;;457235;260;1337;-75
2021/05/16 07:23:04;;;;;;;;;;;21.20;39.80;;;;;;457375;260;2198;-75
2021/05/16 07:25:05;;;;;;;;;;;21.20;39.80;;;;;;457437;260;981;-75
2021/05/16 07:27:06;;;;;;;;;;;21.20;40.00;;;;;;457296;260;1247;-75
2021/05/16 07:29:07;;;;;;;;;;;21.30;39.80;;;;;;457402;260;1078;-75
2021/05/16 07:31:09;;;;;;;;;;;21.20;39.90;;;;;;457379;260;1235;-75
2021/05/16 07:33:10;;;;;;;;;;;21.30;40.00;;;;;;457393;260;1075;-75
2021/05/16 07:35:12;;;;;;;;;;;21.30;40.00;;;;;;457380;260;1076;-75
2021/05/16 07:37:13;;;;;;;;;;;21.20;40.10;;;;;;457347;260;1251;-75
2021/05/16 07:39:14;;;;;;;;;;;21.20;40.20;;;;;;457282;260;1364;-75
2021/05/16 07:41:15;;;;;;;;;;;21.20;40.10;;;;;;457223;260;1241;-75
2021/05/16 07:43:17;;;;;;;;;;;21.20;40.10;;;;;;457319;260;2187;-75
2021/05/16 07:45:18;;;;;;;;;;;21.20;40.10;;;;;;457294;260;1056;-75
2021/05/16 07:47:19;;;;;;;;;;;21.20;40.20;;;;;;457267;260;1201;-75
2021/05/16 07:49:21;;;;;;;;;;;21.20;40.10;;;;;;457391;260;1165;-75
2021/05/16 07:51:22;;;;;;;;;;;21.20;40.00;;;;;;457285;260;1257;-75
2021/05/16 07:53:23;;;;;;;;;;;21.20;40.00;;;;;;457485;260;1184;-75
2021/05/16 07:55:24;;;;;;;;;;;21.30;39.80;;;;;;457368;260;1238;-75
2021/05/16 07:57:26;;;;;;;;;;;21.30;39.90;;;;;;457235;260;1136;-75
2021/05/16 07:59:27;;;;;;;;;;;21.30;39.90;;;;;;457451;260;1071;-75
2021/05/16 08:01:28;;;;;;;;;;;21.30;39.90;;;;;;457241;257;1230;-75
2021/05/16 08:03:30;;;;;;;;;;;21.30;39.90;;;;;;457397;260;2158;-75
2021/05/16 08:05:31;;;;;;;;;;;21.30;40.00;;;;;;457287;260;1055;-75
2021/05/16 08:07:32;;;;;;;;;;;21.30;40.00;;;;;;457184;256;1185;-75
2021/05/16 08:09:33;;;;;;;;;;;21.20;40.00;;;;;;457219;260;1054;-75
2021/05/16 08:11:35;;;;;;;;;;;21.20;40.00;;;;;;457342;260;1281;-75
2021/05/16 08:13:36;;;;;;;;;;;21.20;40.10;;;;;;457353;260;1210;-75
2021/05/16 08:15:37;;;;;;;;;;;21.20;40.20;;;;;;457314;260;1007;-75
2021/05/16 08:17:39;;;;;;;;;;;21.10;40.30;;;;;;457358;260;1220;-75
2021/05/16 08:19:40;;;;;;;;;;;21.20;40.40;;;;;;457416;260;1084;-75
2021/05/16 08:21:41;;;;;;;;;;;21.20;40.30;;;;;;457353;260;1212;-75
2021/05/16 08:23:42;;;;;;;;;;;21.20;40.40;;;;;;457479;260;2210;-75
2021/05/16 08:25:44;;;;;;;;;;;21.20;40.30;;;;;;457371;260;977;-75
2021/05/16 08:27:45;;;;;;;;;;;21.20;40.30;;;;;;457445;260;1089;-75
2021/05/16 08:29:46;;;;;;;;;;;21.20;40.20;;;;;;457445;260;1192;-75
2021/05/16 08:31:48;;;;;;;;;;;21.20;40.20;;;;;;457329;260;1149;-75
2021/05/16 08:33:49;;;;;;;;;;;21.20;40.10;;;;;;457342;260;1066;-75
2021/05/16 08:35:50;;;;;;;;;;;21.30;40.20;;;;;;457316;260;979;-75
2021/05/16 08:37:51;;;;;;;;;;;21.20;40.10;;;;;;457350;260;1157;-75
2021/05/16 08:39:53;;;;;;;;;;;21.20;40.20;;;;;;457306;260;1056;-75
2021/05/16 08:41:55;;;;;;;;;;;21.20;40.10;;;;;;457373;260;1115;-75
2021/05/16 08:43:56;;;;;;;;;;;21.20;40.00;;;;;;457365;260;2171;-75
2021/05/16 08:45:57;;;;;;;;;;;21.20;39.90;;;;;;457355;260;1048;-75
2021/05/16 08:47:59;;;;;;;;;;;21.20;39.90;;;;;;457383;260;1134;-75
2021/05/16 08:50:00;;;;;;;;;;;21.20;39.90;;;;;;457370;257;1068;-75
2021/05/16 08:52:01;;;;;;;;;;;21.20;39.90;;;;;;457355;260;1518;-75
2021/05/16 08:54:02;;;;;;;;;;;21.20;39.80;;;;;;457461;260;1221;-75
2021/05/16 08:56:03;;;;;;;;;;;21.30;39.80;;;;;;457387;260;1264;-75
2021/05/16 08:58:05;;;;;;;;;;;21.20;39.80;;;;;;457360;260;1164;-75
2021/05/16 09:00:06;;;;;;;;;;;21.20;39.80;;;;;;457344;260;980;-75
2021/05/16 09:02:07;;;;;;;;;;;21.20;39.80;;;;;;457327;260;1262;-75
2021/05/16 09:04:09;;;;;;;;;;;21.30;39.80;;;;;;457315;260;2210;-75
2021/05/16 09:06:10;;;;;;;;;;;21.30;39.80;;;;;;457297;260;1250;-75
2021/05/16 09:08:12;;;;;;;;;;;21.30;39.80;;;;;;457316;260;1046;-75
2021/05/16 09:10:13;;;;;;;;;;;21.30;39.80;;;;;;457345;260;1278;-75
2021/05/16 09:12:15;;;;;;;;;;;21.30;39.90;;;;;;457425;260;1372;-75
2021/05/16 09:14:16;;;;;;;;;;;21.30;39.90;;;;;;457435;260;1062;-75
2021/05/16 09:16:17;;;;;;;;;;;21.20;39.90;;;;;;457379;260;1229;-75
2021/05/16 09:18:18;;;;;;;;;;;21.30;39.90;;;;;;457448;260;1092;-75
2021/05/16 09:20:24;;;;;;;;;;;21.30;39.80;;;;;;457421;260;1103;-75
2021/05/16 09:22:22;;;;;;;;;;;21.20;39.70;;;;;;457136;260;1475;-75
2021/05/16 09:24:23;;;;;;;;;;;21.30;39.90;;;;;;457412;260;2135;-75
2021/05/16 09:26:24;;;;;;;;;;;21.30;39.70;;;;;;457164;260;1346;-75
2021/05/16 09:28:26;;;;;;;;;;;21.20;39.70;;;;;;457385;260;1119;-75
2021/05/16 09:30:27;;;;;;;;;;;21.20;39.60;;;;;;457274;260;1220;-75
2021/05/16 09:32:28;;;;;;;;;;;21.20;39.80;;;;;;457262;260;1147;-75
2021/05/16 09:34:30;;;;;;;;;;;21.20;39.80;;;;;;457266;260;1089;-75
2021/05/16 09:36:31;;;;;;;;;;;21.20;39.80;;;;;;457276;257;1205;-75
2021/05/16 09:38:33;;;;;;;;;;;21.20;39.80;;;;;;457447;260;981;-75
2021/05/16 09:40:37;;;;;;;;;;;21.30;39.80;;;;;;457494;260;1203;-75
2021/05/16 09:42:35;;;;;;;;;;;21.30;39.70;;;;;;457284;260;1494;-75
2021/05/16 09:44:37;;;;;;;;;;;21.30;39.60;;;;;;457348;260;2186;-75
2021/05/16 09:46:38;;;;;;;;;;;21.30;39.80;;;;;;457375;260;1234;-75
2021/05/16 09:48:42;;;;;;;;;;;21.30;39.80;;;;;;457478;260;1075;-75
2021/05/16 09:50:41;;;;;;;;;;;21.30;39.90;;;;;;457238;260;1506;-75
2021/05/16 09:52:42;;;;;;;;;;;21.20;40.00;;;;;;457301;260;1109;-75
2021/05/16 09:54:43;;;;;;;;;;;21.20;40.10;;;;;;457319;260;1179;-75
2021/05/16 09:56:46;;;;;;;;;;;21.30;39.90;;;;;;457296;260;1069;-75
2021/05/16 09:58:46;;;;;;;;;;;21.30;39.90;;;;;;457243;260;1913;-75
2021/05/16 10:00:47;;;;;;;;;;;21.20;40.00;;;;;;457301;260;1129;-75
2021/05/16 10:02:48;;;;;;;;;;;21.20;40.10;;;;;;457352;260;1028;-75
2021/05/16 10:04:50;;;;;;;;;;;21.30;40.00;;;;;;457359;260;2122;-75
2021/05/16 10:06:51;;;;;;;;;;;21.30;39.80;;;;;;457365;260;1493;-75
2021/05/16 10:08:52;;;;;;;;;;;21.40;39.80;;;;;;457351;260;1048;-75
2021/05/16 10:10:53;;;;;;;;;;;21.40;39.60;;;;;;457375;260;1186;-75
2021/05/16 10:12:55;;;;;;;;;;;21.30;39.60;;;;;;457369;260;1071;-75
2021/05/16 10:14:56;;;;;;;;;;;21.30;39.80;;;;;;457367;260;1112;-75
2021/05/16 10:16:57;;;;;;;;;;;21.30;39.80;;;;;;457364;260;1203;-75
2021/05/16 10:18:59;;;;;;;;;;;21.40;39.90;;;;;;457368;260;1032;-75
2021/05/16 10:21:00;;;;;;;;;;;21.30;39.90;;;;;;457284;260;1267;-75
2021/05/16 10:23:03;;;;;;;;;;;21.30;39.80;;;;;;457301;260;2199;-75
2021/05/16 10:25:02;;;;;;;;;;;21.30;40.00;;;;;;457204;256;1316;-75
2021/05/16 10:27:06;;;;;;;;;;;21.30;39.80;;;;;;457224;260;1234;-75
2021/05/16 10:29:07;;;;;;;;;;;21.30;40.00;;;;;;457393;260;1325;-75
2021/05/16 10:31:10;;;;;;;;;;;21.30;40.00;;;;;;457354;260;1338;-75
2021/05/16 10:33:12;;;;;;;;;;;21.10;40.20;;;;;;457336;260;1470;-75
2021/05/16 10:35:11;;;;;;;;;;;21.10;40.20;;;;;;457397;260;1375;-75
2021/05/16 10:37:15;;;;;;;;;;;21.10;40.30;;;;;;457363;260;1321;-75
2021/05/16 10:39:14;;;;;;;;;;;21.10;40.20;;;;;;457189;260;1346;-75
2021/05/16 10:41:15;;;;;;;;;;;21.00;40.20;;;;;;457393;260;1223;-75
2021/05/16 10:43:16;;;;;;;;;;;21.00;40.20;;;;;;457314;260;2199;-76
2021/05/16 10:45:18;;;;;;;;;;;21.10;40.10;;;;;;457251;260;1001;-75
2021/05/16 10:47:19;;;;;;;;;;;21.10;40.00;;;;;;457209;260;1288;-75
2021/05/16 10:49:20;;;;;;;;;;;21.10;40.00;;;;;;457350;260;989;-75
2021/05/16 10:51:22;;;;;;;;;;;21.00;40.00;;;;;;457265;260;1150;-75
2021/05/16 10:53:25;;;;;;;;;;;21.00;39.90;;;;;;457332;260;991;-75
2021/05/16 10:55:24;;;;;;;;;;;21.00;40.00;;;;;;457268;255;1436;-75
2021/05/16 10:57:26;;;;;;;;;;;21.00;40.00;;;;;;457363;260;1182;-75
2021/05/16 10:59:27;;;;;;;;;;;21.00;40.00;;;;;;457484;260;957;-75
2021/05/16 11:01:28;;;;;;;;;;;21.00;40.10;;;;;;457309;260;1214;-75
2021/05/16 11:03:29;;;;;;;;;;;21.10;40.00;;;;;;457375;260;2210;-75
2021/05/16 11:05:31;;;;;;;;;;;21.10;40.00;;;;;;457370;260;1062;-75
2021/05/16 11:07:32;;;;;;;;;;;21.10;40.00;;;;;;457452;260;1109;-75
2021/05/16 11:09:36;;;;;;;;;;;21.10;39.90;;;;;;457348;260;1066;-75
2021/05/16 11:11:37;;;;;;;;;;;21.00;39.90;;;;;;457287;260;1305;-75
2021/05/16 11:13:38;;;;;;;;;;;21.10;39.90;;;;;;457318;260;1105;-75
2021/05/16 11:15:40;;;;;;;;;;;21.10;40.00;;;;;;457186;255;1231;-75
2021/05/16 11:17:41;;;;;;;;;;;21.10;40.00;;;;;;457291;260;1116;-75
2021/05/16 11:19:42;;;;;;;;;;;21.00;40.10;;;;;;457309;260;965;-75
2021/05/16 11:21:44;;;;;;;;;;;21.00;40.10;;;;;;457316;260;1098;-75
2021/05/16 11:23:46;;;;;;;;;;;21.00;40.00;;;;;;457489;260;2194;-75
2021/05/16 11:25:46;;;;;;;;;;;21.10;39.90;;;;;;457416;260;1413;-75
2021/05/16 11:27:47;;;;;;;;;;;21.10;39.90;;;;;;457360;260;1068;-75
2021/05/16 11:29:49;;;;;;;;;;;21.20;39.70;;;;;;457412;260;1071;-75
2021/05/16 11:31:50;;;;;;;;;;;21.20;39.50;;;;;;457320;260;1117;-75
2021/05/16 11:33:51;;;;;;;;;;;21.20;39.60;;;;;;457408;260;959;-75
2021/05/16 11:35:53;;;;;;;;;;;21.20;39.50;;;;;;457394;260;1062;-75
2021/05/16 11:37:56;;;;;;;;;;;21.30;39.30;;;;;;457378;260;1086;-75
2021/05/16 11:39:55;;;;;;;;;;;21.20;39.50;;;;;;457292;260;1528;-75
2021/05/16 11:41:57;;;;;;;;;;;21.20;39.40;;;;;;457327;260;1250;-75
2021/05/16 11:43:58;;;;;;;;;;;21.20;39.40;;;;;;457327;260;2211;-75
2021/05/16 11:45:59;;;;;;;;;;;21.20;39.30;;;;;;457300;260;1047;-75
2021/05/16 11:48:00;;;;;;;;;;;21.20;39.20;;;;;;457326;260;1079;-75
2021/05/16 11:50:02;;;;;;;;;;;21.20;39.20;;;;;;457393;260;965;-75
2021/05/16 11:52:03;;;;;;;;;;;21.30;39.30;;;;;;457339;260;1108;-75
2021/05/16 11:54:04;;;;;;;;;;;21.30;39.10;;;;;;457428;260;1059;-75
2021/05/16 11:56:06;;;;;;;;;;;21.20;39.00;;;;;;457394;255;1198;-75